Time,TemperatureF,DewpointF,PressureIn,WindDirection,WindDirectionDegrees,WindSpeedMPH,WindSpeedGustMPH,Humidity,HourlyPrecipIn,Conditions,Clouds,dailyrainin,SoftwareType,DateUTC
2013-07-18 00:04:00,78.7,75.8,29.23,NW,304,0.0,0.0,91,0.00,,,0.00,Wunderground v.1.15,2013-07-18 04:04:00,
2013-07-18 00:09:00,78.5,76.0,29.22,NW,304,0.0,1.0,92,0.00,,,0.00,Wunderground v.1.15,2013-07-18 04:09:00,
2013-07-18 00:15:00,78.5,76.0,29.22,WNW,296,1.0,1.0,92,0.00,,,0.00,Wunderground v.1.15,2013-07-18 04:15:00,
2013-07-18 00:20:00,78.4,75.9,29.22,WNW,296,2.0,2.0,92,0.00,,,0.00,Wunderground v.1.15,2013-07-18 04:20:00,
2013-07-18 00:25:00,78.3,75.8,29.22,NW,304,3.0,3.0,92,0.00,,,0.00,Wunderground v.1.15,2013-07-18 04:25:00,
2013-07-18 00:30:00,78.2,75.7,29.22,WNW,291,4.0,4.0,92,0.00,,,0.00,Wunderground v.1.15,2013-07-18 04:30:00,
2013-07-18 00:35:00,78.2,76.0,29.22,WNW,282,3.0,4.0,93,0.00,,,0.00,Wunderground v.1.15,2013-07-18 04:35:00,
2013-07-18 00:40:00,78.1,75.9,29.22,NW,304,3.0,3.0,93,0.00,,,0.00,Wunderground v.1.15,2013-07-18 04:40:00,
2013-07-18 00:50:00,78.0,75.8,29.22,WNW,287,1.0,2.0,93,0.00,,,0.00,Wunderground v.1.15,2013-07-18 04:50:00,
2013-07-18 00:55:00,78.0,75.8,29.22,NNW,344,1.0,2.0,93,0.00,,,0.00,Wunderground v.1.15,2013-07-18 04:55:00,
2013-07-18 01:00:00,77.9,75.7,29.22,WNW,289,1.0,1.0,93,0.00,,,0.00,Wunderground v.1.15,2013-07-18 05:00:00,
2013-07-18 01:05:00,77.8,75.6,29.22,NW,310,1.0,6.0,93,0.00,,,0.00,Wunderground v.1.15,2013-07-18 05:05:00,
2013-07-18 01:10:00,77.8,75.6,29.22,WNW,296,1.0,1.0,93,0.00,,,0.00,Wunderground v.1.15,2013-07-18 05:10:00,
2013-07-18 01:15:00,77.7,75.5,29.22,WNW,298,0.0,6.0,93,0.00,,,0.00,Wunderground v.1.15,2013-07-18 05:15:00,
2013-07-18 01:24:00,77.5,75.3,29.22,WNW,290,0.0,6.0,93,0.00,,,0.00,Wunderground v.1.15,2013-07-18 05:24:00,
2013-07-18 01:29:00,77.4,75.2,29.22,WNW,295,0.0,6.0,93,0.00,,,0.00,Wunderground v.1.15,2013-07-18 05:29:00,
2013-07-18 01:34:00,77.3,75.1,29.22,WNW,293,0.0,6.0,93,0.00,,,0.00,Wunderground v.1.15,2013-07-18 05:34:00,
2013-07-18 01:39:00,77.3,75.4,29.21,WNW,302,1.0,6.0,94,0.00,,,0.00,Wunderground v.1.15,2013-07-18 05:39:00,
2013-07-18 01:44:00,77.2,75.3,29.21,WNW,286,2.0,6.0,94,0.00,,,0.00,Wunderground v.1.15,2013-07-18 05:44:00,
2013-07-18 01:54:00,77.1,75.2,29.22,NW,304,1.0,6.0,94,0.00,,,0.00,Wunderground v.1.15,2013-07-18 05:54:00,
2013-07-18 01:59:00,77.0,75.1,29.22,NW,311,1.0,6.0,94,0.00,,,0.00,Wunderground v.1.15,2013-07-18 05:59:00,
2013-07-18 02:04:00,77.0,75.1,29.21,WNW,300,1.0,6.0,94,0.00,,,0.00,Wunderground v.1.15,2013-07-18 06:04:00,
2013-07-18 02:09:00,76.9,75.0,29.22,WNW,287,1.0,6.0,94,0.00,,,0.00,Wunderground v.1.15,2013-07-18 06:09:00,
2013-07-18 02:14:00,76.9,75.0,29.21,WNW,294,0.0,6.0,94,0.00,,,0.00,Wunderground v.1.15,2013-07-18 06:14:00,
2013-07-18 02:19:00,76.9,75.0,29.21,WNW,298,1.0,1.0,94,0.00,,,0.00,Wunderground v.1.15,2013-07-18 06:19:00,
2013-07-18 02:29:00,76.9,75.0,29.21,WNW,285,0.0,6.0,94,0.00,,,0.00,Wunderground v.1.15,2013-07-18 06:29:00,
2013-07-18 02:34:00,76.9,75.0,29.21,WNW,294,0.0,6.0,94,0.00,,,0.00,Wunderground v.1.15,2013-07-18 06:34:00,
2013-07-18 02:39:00,76.8,74.9,29.21,WNW,294,0.0,6.0,94,0.00,,,0.00,Wunderground v.1.15,2013-07-18 06:39:00,
2013-07-18 02:44:00,76.8,74.9,29.21,WNW,295,0.0,6.0,94,0.00,,,0.00,Wunderground v.1.15,2013-07-18 06:44:00,
2013-07-18 02:49:00,76.8,74.9,29.21,WNW,289,0.0,6.0,94,0.00,,,0.00,Wunderground v.1.15,2013-07-18 06:49:00,
2013-07-18 02:59:00,76.8,75.3,29.21,WNW,296,2.0,2.0,95,0.00,,,0.00,Wunderground v.1.15,2013-07-18 06:59:00,
2013-07-18 03:04:00,76.8,75.3,29.21,WNW,290,1.0,6.0,95,0.00,,,0.00,Wunderground v.1.15,2013-07-18 07:04:00,
2013-07-18 03:09:00,76.8,75.3,29.21,NW,313,0.0,6.0,95,0.00,,,0.00,Wunderground v.1.15,2013-07-18 07:09:00,
2013-07-18 03:14:00,76.8,75.3,29.21,WNW,293,0.0,6.0,95,0.00,,,0.00,Wunderground v.1.15,2013-07-18 07:14:00,
2013-07-18 03:19:00,76.8,74.9,29.21,WNW,286,1.0,6.0,94,0.00,,,0.00,Wunderground v.1.15,2013-07-18 07:19:00,
2013-07-18 03:24:00,76.8,75.3,29.21,WNW,290,1.0,6.0,95,0.00,,,0.00,Wunderground v.1.15,2013-07-18 07:24:00,
2013-07-18 03:34:00,76.9,75.0,29.20,WNW,295,1.0,6.0,94,0.00,,,0.00,Wunderground v.1.15,2013-07-18 07:34:00,
2013-07-18 03:39:00,76.9,75.0,29.20,WNW,292,1.0,6.0,94,0.00,,,0.00,Wunderground v.1.15,2013-07-18 07:39:00,
2013-07-18 03:44:00,76.8,74.9,29.20,WNW,295,1.0,6.0,94,0.00,,,0.00,Wunderground v.1.15,2013-07-18 07:44:00,
2013-07-18 03:49:00,76.8,74.9,29.20,WNW,300,1.0,1.0,94,0.00,,,0.00,Wunderground v.1.15,2013-07-18 07:49:00,
2013-07-18 03:54:00,76.8,75.3,29.20,WNW,301,1.0,6.0,95,0.00,,,0.00,Wunderground v.1.15,2013-07-18 07:54:00,
2013-07-18 04:00:00,76.7,75.2,29.21,WNW,300,1.0,6.0,95,0.00,,,0.00,Wunderground v.1.15,2013-07-18 08:00:00,
2013-07-18 04:05:00,76.7,75.2,29.20,WNW,298,1.0,6.0,95,0.00,,,0.00,Wunderground v.1.15,2013-07-18 08:05:00,
2013-07-18 04:10:00,76.7,75.2,29.20,WNW,296,0.0,6.0,95,0.00,,,0.00,Wunderground v.1.15,2013-07-18 08:10:00,
2013-07-18 04:15:00,76.6,75.1,29.20,WNW,300,0.0,6.0,95,0.00,,,0.00,Wunderground v.1.15,2013-07-18 08:15:00,
2013-07-18 04:20:00,76.5,75.0,29.20,WNW,300,0.0,6.0,95,0.00,,,0.00,Wunderground v.1.15,2013-07-18 08:20:00,
2013-07-18 04:25:00,76.5,75.0,29.20,WNW,300,0.0,6.0,95,0.00,,,0.00,Wunderground v.1.15,2013-07-18 08:25:00,
2013-07-18 04:34:00,76.4,74.9,29.21,NW,310,0.0,6.0,95,0.00,,,0.00,Wunderground v.1.15,2013-07-18 08:34:00,
2013-07-18 04:39:00,76.5,75.0,29.21,WNW,297,0.0,6.0,95,0.00,,,0.00,Wunderground v.1.15,2013-07-18 08:39:00,
2013-07-18 04:45:00,76.4,74.9,29.21,WNW,290,0.0,6.0,95,0.00,,,0.00,Wunderground v.1.15,2013-07-18 08:45:00,
2013-07-18 04:50:00,76.4,75.2,29.21,WNW,294,0.0,6.0,96,0.00,,,0.00,Wunderground v.1.15,2013-07-18 08:50:00,
2013-07-18 04:55:00,76.3,75.1,29.21,WNW,294,0.0,6.0,96,0.00,,,0.00,Wunderground v.1.15,2013-07-18 08:55:00,
2013-07-18 05:00:00,76.3,75.1,29.21,NW,311,0.0,6.0,96,0.00,,,0.00,Wunderground v.1.15,2013-07-18 09:00:00,
2013-07-18 05:09:00,76.4,75.2,29.21,NW,313,0.0,6.0,96,0.00,,,0.00,Wunderground v.1.15,2013-07-18 09:09:00,
2013-07-18 05:14:00,76.4,75.2,29.21,WNW,298,0.0,6.0,96,0.00,,,0.00,Wunderground v.1.15,2013-07-18 09:14:00,
2013-07-18 05:19:00,76.4,75.2,29.21,WNW,300,0.0,6.0,96,0.00,,,0.00,Wunderground v.1.15,2013-07-18 09:19:00,
2013-07-18 05:24:00,76.4,75.2,29.21,WNW,300,0.0,6.0,96,0.00,,,0.00,Wunderground v.1.15,2013-07-18 09:24:00,
2013-07-18 05:29:00,76.3,75.1,29.20,WNW,300,0.0,6.0,96,0.00,,,0.00,Wunderground v.1.15,2013-07-18 09:29:00,
2013-07-18 05:39:00,76.3,75.1,29.20,WNW,290,0.0,6.0,96,0.00,,,0.00,Wunderground v.1.15,2013-07-18 09:39:00,
2013-07-18 05:44:00,76.3,75.1,29.20,WNW,290,1.0,6.0,96,0.00,,,0.00,Wunderground v.1.15,2013-07-18 09:44:00,
2013-07-18 05:49:00,76.3,75.1,29.20,WNW,290,1.0,1.0,96,0.00,,,0.00,Wunderground v.1.15,2013-07-18 09:49:00,
2013-07-18 05:54:00,76.3,75.1,29.21,WNW,301,1.0,6.0,96,0.00,,,0.00,Wunderground v.1.15,2013-07-18 09:54:00,
2013-07-18 05:59:00,76.3,75.1,29.20,NNW,333,1.0,6.0,96,0.00,,,0.00,Wunderground v.1.15,2013-07-18 09:59:00,
2013-07-18 06:04:00,76.4,75.2,29.20,WNW,295,2.0,6.0,96,0.00,,,0.00,Wunderground v.1.15,2013-07-18 10:04:00,
2013-07-18 06:14:00,76.4,75.2,29.20,WNW,294,1.0,6.0,96,0.00,,,0.00,Wunderground v.1.15,2013-07-18 10:14:00,
2013-07-18 06:19:00,76.4,75.2,29.20,WNW,294,1.0,1.0,96,0.00,,,0.00,Wunderground v.1.15,2013-07-18 10:19:00,
2013-07-18 06:24:00,76.5,75.3,29.21,WNW,291,1.0,6.0,96,0.00,,,0.00,Wunderground v.1.15,2013-07-18 10:24:00,
2013-07-18 06:29:00,76.6,75.4,29.21,WNW,303,1.0,1.0,96,0.00,,,0.00,Wunderground v.1.15,2013-07-18 10:29:00,
2013-07-18 06:34:00,76.7,75.5,29.21,WNW,300,1.0,6.0,96,0.00,,,0.00,Wunderground v.1.15,2013-07-18 10:34:00,
2013-07-18 06:44:00,77.1,75.9,29.21,WNW,296,0.0,6.0,96,0.00,,,0.00,Wunderground v.1.15,2013-07-18 10:44:00,
2013-07-18 06:49:00,77.4,76.2,29.21,NW,305,0.0,6.0,96,0.00,,,0.00,Wunderground v.1.15,2013-07-18 10:49:00,
2013-07-18 06:54:00,77.7,76.5,29.21,NW,306,0.0,6.0,96,0.00,,,0.00,Wunderground v.1.15,2013-07-18 10:54:00,
2013-07-18 06:59:00,78.0,76.5,29.21,WNW,296,0.0,6.0,95,0.00,,,0.00,Wunderground v.1.15,2013-07-18 10:59:00,
2013-07-18 07:04:00,78.2,76.6,29.21,WNW,301,0.0,6.0,95,0.00,,,0.00,Wunderground v.1.15,2013-07-18 11:04:00,
2013-07-18 07:09:00,78.5,76.6,29.21,WNW,292,0.0,6.0,94,0.00,,,0.00,Wunderground v.1.15,2013-07-18 11:09:00,
2013-07-18 07:15:00,78.9,76.7,29.21,WNW,301,0.0,6.0,93,0.00,,,0.00,Wunderground v.1.15,2013-07-18 11:15:00,
2013-07-18 07:20:00,79.4,76.9,29.21,WNW,297,1.0,1.0,92,0.00,,,0.00,Wunderground v.1.15,2013-07-18 11:20:00,
2013-07-18 07:25:00,79.7,77.2,29.21,WNW,295,0.0,3.0,92,0.00,,,0.00,Wunderground v.1.15,2013-07-18 11:25:00,
2013-07-18 07:34:00,80.4,77.2,29.20,WNW,296,1.0,6.0,90,0.00,,,0.00,Wunderground v.1.15,2013-07-18 11:34:00,
2013-07-18 07:39:00,80.7,77.2,29.20,WNW,290,2.0,2.0,89,0.00,,,0.00,Wunderground v.1.15,2013-07-18 11:39:00,
2013-07-18 07:45:00,81.1,77.5,29.21,WNW,296,1.0,6.0,89,0.00,,,0.00,Wunderground v.1.15,2013-07-18 11:45:00,
2013-07-18 07:50:00,81.6,77.7,29.20,NW,317,0.0,6.0,88,0.00,,,0.00,Wunderground v.1.15,2013-07-18 11:50:00,